Time;durP1;ratioP1;P1;durP2;ratioP2;P2;SDS_P1;SDS_P2;PMS_P1;PMS_P2;Temp;Humidity;BMP_temperature;BMP_pressure;BME280_temperature;BME280_humidity;BME280_pressure;Samples;Min_cycle;Max_cycle;Signal;HPM_P1;HPM_P2
2022/12/20 00:01:40;;;;;;;41.65;23.52;;;;;;;-0.21;84.07;101712.44;5086269;28;20506;-70
2022/12/20 00:04:05;;;;;;;38.30;22.27;;;;;;;-0.27;84.04;101705.00;5092269;28;20023;-70
2022/12/20 00:06:33;;;;;;;46.25;25.67;;;;;;;-0.32;84.76;101702.03;5092032;28;20023;-70
2022/12/20 00:09:00;;;;;;;57.38;28.30;;;;;;;-0.15;83.94;101708.84;5093349;28;20069;-70
2022/12/20 00:11:27;;;;;;;57.15;26.80;;;;;;;-0.10;84.71;101701.88;5092264;28;20023;-70
2022/12/20 00:13:53;;;;;;;48.85;27.08;;;;;;;-0.07;84.69;101709.72;5093504;28;20077;-71
2022/12/20 00:16:25;;;;;;;38.47;23.30;;;;;;;0.01;84.31;101712.28;5080176;28;20044;-70
2022/12/20 00:18:53;;;;;;;41.95;25.92;;;;;;;-0.03;84.69;101721.97;5073007;28;20116;-70
2022/12/20 00:21:19;;;;;;;41.67;22.75;;;;;;;0.08;84.87;101723.28;5072589;28;20032;-70
2022/12/20 00:23:44;;;;;;;38.00;21.17;;;;;;;-0.11;83.62;101716.69;5072779;28;20367;-70
2022/12/20 00:26:12;;;;;;;36.15;20.55;;;;;;;-0.45;83.70;101713.81;5071351;28;20105;-70
2022/12/20 00:28:39;;;;;;;34.63;20.85;;;;;;;-0.50;84.47;101711.69;5072764;28;20440;-70
2022/12/20 00:31:06;;;;;;;40.20;20.73;;;;;;;-0.43;82.79;101711.72;5073014;28;20020;-70
2022/12/20 00:33:33;;;;;;;34.22;18.30;;;;;;;-0.42;80.09;101707.94;5071429;28;20046;-70
2022/12/20 00:35:59;;;;;;;35.33;20.42;;;;;;;-0.46;82.26;101707.50;5071187;28;20021;-70
2022/12/20 00:38:26;;;;;;;35.28;19.83;;;;;;;-0.50;82.88;101708.09;5071356;28;20112;-70
2022/12/20 00:41:14;;;;;;;38.53;20.30;;;;;;;-0.34;82.95;101704.16;5079416;28;20383;-70
2022/12/20 00:43:40;;;;;;;45.03;22.08;;;;;;;-0.22;83.51;101702.47;5092123;28;20030;-70
2022/12/20 00:46:08;;;;;;;44.65;22.17;;;;;;;-0.09;82.58;101707.16;5087437;28;20552;-70
2022/12/20 00:48:34;;;;;;;40.03;20.38;;;;;;;0.02;81.81;101702.09;5070977;28;20039;-70
2022/12/20 00:51:04;;;;;;;50.05;21.30;;;;;;;0.09;82.06;101700.22;5072010;28;20028;-71
2022/12/20 00:53:30;;;;;;;;;;;;;;;0.20;81.08;101704.22;5072786;28;20074;-71
2022/12/20 00:55:55;;;;;;;38.45;18.70;;;;;;;0.13;80.97;101696.81;5070889;28;19908;-70
2022/12/20 00:58:21;;;;;;;41.08;21.23;;;;;;;-0.03;81.51;101683.47;5086478;28;20031;-70
2022/12/20 01:00:47;;;;;;;32.47;19.15;;;;;;;-0.16;82.71;101687.88;5089678;28;20016;-71
2022/12/20 01:03:13;;;;;;;38.33;19.95;;;;;;;-0.19;82.86;101691.06;5092543;28;20034;-71
2022/12/20 01:05:39;;;;;;;38.25;20.02;;;;;;;-0.22;83.38;101690.63;5092510;28;20020;-71
2022/12/20 01:08:05;;;;;;;36.85;20.02;;;;;;;-0.22;83.96;101685.97;5091850;28;20028;-70
2022/12/20 01:10:32;;;;;;;33.45;19.75;;;;;;;-0.23;84.47;101678.78;5087082;28;20034;-71
2022/12/20 01:12:58;;;;;;;36.67;19.95;;;;;;;-0.33;83.04;101684.66;5083020;28;20024;-71
2022/12/20 01:15:23;;;;;;;34.40;17.80;;;;;;;-0.39;83.69;101684.66;5087681;28;20517;-71
2022/12/20 01:17:50;;;;;;;33.72;17.92;;;;;;;-0.57;83.41;101683.34;5071453;28;20032;-71
2022/12/20 01:20:16;;;;;;;35.47;18.33;;;;;;;-0.62;85.02;101694.09;5071018;28;20082;-71
2022/12/20 01:22:41;;;;;;;37.33;18.83;;;;;;;-0.67;86.34;101682.88;5071679;28;20021;-71
2022/12/20 01:25:07;;;;;;;38.72;18.70;;;;;;;-0.77;85.71;101678.59;5071056;28;20024;-71
2022/12/20 01:27:32;;;;;;;37.55;18.08;;;;;;;-0.81;85.39;101671.84;5070172;28;20037;-71
2022/12/20 01:29:58;;;;;;;38.22;19.23;;;;;;;-0.69;85.30;101663.84;5072017;28;20502;-71
2022/12/20 01:32:23;;;;;;;38.22;19.60;;;;;;;-0.72;85.71;101673.34;5071127;28;20483;-71
2022/12/20 01:34:49;;;;;;;39.72;20.88;;;;;;;-0.80;86.56;101669.91;5069764;28;20410;-71
2022/12/20 01:37:15;;;;;;;35.30;18.75;;;;;;;-0.76;85.93;101680.28;5071201;28;20506;-71
2022/12/20 01:39:40;;;;;;;39.83;19.60;;;;;;;-0.78;85.60;101670.59;5072790;28;20112;-71
2022/12/20 01:42:06;;;;;;;37.08;17.02;;;;;;;-0.75;85.97;101660.00;5090499;28;20054;-71
2022/12/20 01:44:31;;;;;;;41.22;17.95;;;;;;;-0.71;86.31;101661.31;5090162;28;20024;-70
2022/12/20 01:46:56;;;;;;;37.58;18.30;;;;;;;-0.85;85.64;101654.91;5089856;28;20119;-71
2022/12/20 01:49:22;;;;;;;38.95;17.08;;;;;;;-0.74;85.96;101650.69;5089560;28;20027;-71
2022/12/20 01:52:10;;;;;;;36.63;17.50;;;;;;;-0.65;86.38;101658.78;5090275;28;20119;-71
2022/12/20 01:54:37;;;;;;;33.83;16.00;;;;;;;-0.66;87.54;101654.34;5090940;28;20028;-71
2022/12/20 01:57:09;;;;;;;35.58;17.08;;;;;;;-0.68;85.79;101651.78;5090732;28;20024;-71
2022/12/20 01:59:37;;;;;;;34.95;18.17;;;;;;;-0.71;86.42;101641.19;5089198;28;20103;-71
2022/12/20 02:02:08;;;;;;;35.08;18.23;;;;;;;-0.78;86.86;101638.44;5069505;28;20028;-71
2022/12/20 02:04:33;;;;;;;;;;;;;;;-0.66;85.97;101637.84;5071177;28;20031;-71
2022/12/20 02:07:00;;;;;;;31.33;17.52;;;;;;;-0.68;84.63;101631.72;5070750;28;20002;-71
2022/12/20 02:09:26;;;;;;;32.13;16.25;;;;;;;-0.67;84.12;101622.41;5069228;28;20043;-71
2022/12/20 02:12:06;;;;;;;33.63;15.38;;;;;;;-0.66;84.71;101630.44;5069598;28;20039;-71
2022/12/20 02:14:42;;;;;;;35.55;16.90;;;;;;;-0.73;83.47;101629.56;5070641;28;20087;-71
2022/12/20 02:17:34;;;;;;;30.60;14.90;;;;;;;-0.69;85.13;101624.50;5073179;28;20020;-71
2022/12/20 02:20:22;;;;;;;35.88;17.35;;;;;;;-0.66;85.04;101627.69;5084481;28;20430;-71
2022/12/20 02:23:06;;;;;;;32.80;15.20;;;;;;;-0.40;84.05;101627.97;5079681;28;20032;-71
2022/12/20 02:26:03;;;;;;;32.28;16.08;;;;;;;-0.30;83.23;101622.91;5068992;28;20028;-71
2022/12/20 02:28:38;;;;;;;29.73;15.70;;;;;;;-0.29;83.23;101632.84;5069204;28;20064;-71
2022/12/20 02:31:10;;;;;;;38.13;16.15;;;;;;;-0.37;84.30;101628.41;5069434;28;20480;-71
2022/12/20 02:33:38;;;;;;;33.33;16.65;;;;;;;-0.43;85.22;101619.06;5070366;28;20099;-71
2022/12/20 02:36:04;;;;;;;35.58;18.05;;;;;;;-0.24;84.85;101626.72;5070586;28;20102;-72
2022/12/20 02:38:35;;;;;;;32.25;15.55;;;;;;;-0.25;84.48;101622.28;5091267;28;20490;-71
2022/12/20 02:41:25;;;;;;;29.83;14.50;;;;;;;-0.11;85.04;101625.91;5089733;28;20023;-71
2022/12/20 02:46:47;;;;;;;34.00;16.05;;;;;;;-0.32;84.96;101606.59;5090652;28;20472;-71
2022/12/20 02:49:17;;;;;;;35.70;17.45;;;;;;;-0.35;85.41;101615.28;5090987;28;20110;-71
2022/12/20 02:51:45;;;;;;;33.10;17.80;;;;;;;-0.36;85.93;101623.72;5070426;28;20502;-71
2022/12/20 02:54:12;;;;;;;29.27;16.17;;;;;;;-0.15;85.23;101609.78;5071033;28;20042;-71
2022/12/20 02:56:42;;;;;;;29.88;16.40;;;;;;;-0.23;84.03;101618.28;5071110;28;20024;-70
2022/12/20 02:59:17;;;;;;;;;;;;;;;-0.34;83.80;101622.47;5089160;28;20036;-70
2022/12/20 03:01:53;;;;;;;31.90;16.80;;;;;;;-0.28;84.40;101618.03;5089205;28;19912;-71
2022/12/20 03:04:23;;;;;;;30.95;17.67;;;;;;;-0.10;83.24;101619.34;5090775;28;20036;-71
2022/12/20 03:07:00;;;;;;;33.78;17.27;;;;;;;-0.18;83.73;101612.09;5086417;28;20023;-71
2022/12/20 03:09:25;;;;;;;35.55;17.67;;;;;;;-0.25;82.98;101609.34;5093173;28;20506;-71
2022/12/20 03:11:52;;;;;;;34.47;18.23;;;;;;;-0.34;83.59;101608.72;5094495;28;20028;-71
2022/12/20 03:14:18;;;;;;;34.45;18.10;;;;;;;-0.38;84.88;101612.94;5094464;28;20028;-71
2022/12/20 03:16:44;;;;;;;35.67;17.10;;;;;;;-0.39;85.35;101596.66;5094058;28;20173;-71
2022/12/20 03:19:09;;;;;;;33.30;18.95;;;;;;;-0.16;82.81;101597.09;5094394;28;20047;-72
2022/12/20 03:21:34;;;;;;;36.28;17.70;;;;;;;-0.12;81.50;101599.41;5086572;28;20076;-71
2022/12/20 03:24:00;;;;;;;32.13;17.42;;;;;;;-0.16;81.22;101596.25;5092183;28;20032;-72
2022/12/20 03:26:25;;;;;;;35.60;18.17;;;;;;;-0.16;81.56;101599.00;5089498;28;20078;-72
2022/12/20 03:28:51;;;;;;;33.85;16.33;;;;;;;-0.19;81.97;101603.03;5089849;28;20069;-71
2022/12/20 03:31:17;;;;;;;33.70;17.73;;;;;;;-0.13;81.70;101594.97;5092491;28;20032;-71
2022/12/20 03:33:42;;;;;;;35.92;18.27;;;;;;;-0.09;80.61;101593.50;5094122;28;20068;-71
2022/12/20 03:36:08;;;;;;;29.77;16.77;;;;;;;-0.03;80.80;101592.66;5093587;28;20085;-72
2022/12/20 03:38:33;;;;;;;36.88;20.83;;;;;;;0.01;79.43;101595.84;5091852;28;20036;-71
2022/12/20 03:40:59;;;;;;;29.60;17.38;;;;;;;-0.08;81.37;101608.97;5092592;28;20032;-71
2022/12/20 03:43:24;;;;;;;36.13;18.42;;;;;;;-0.10;82.61;101600.06;5093968;28;20028;-71
2022/12/20 03:45:50;;;;;;;37.30;19.65;;;;;;;-0.21;82.70;101599.66;5089965;28;20031;-71
2022/12/20 03:48:15;;;;;;;31.95;17.20;;;;;;;-0.44;81.35;101608.28;5072392;28;20032;-71
2022/12/20 03:50:41;;;;;;;32.10;18.10;;;;;;;-0.37;82.73;101608.28;5073273;28;20086;-71
2022/12/20 03:53:06;;;;;;;36.08;17.98;;;;;;;-0.40;82.89;101604.06;5072975;28;20031;-71
2022/12/20 03:55:32;;;;;;;32.63;17.00;;;;;;;-0.60;82.95;101606.78;5073199;28;20032;-71
2022/12/20 03:57:57;;;;;;;35.60;17.40;;;;;;;-0.57;83.02;101604.44;5088407;28;20082;-71
2022/12/20 04:00:23;;;;;;;36.47;18.77;;;;;;;-0.73;83.01;101608.41;5091617;28;20036;-71
2022/12/20 04:02:48;;;;;;;40.35;18.40;;;;;;;-0.55;83.15;101611.63;5093264;28;20038;-71
2022/12/20 04:05:15;;;;;;;42.75;18.20;;;;;;;-0.45;81.79;101612.94;5091819;28;20028;-70
2022/12/20 04:07:41;;;;;;;35.10;18.40;;;;;;;-0.39;81.41;101602.16;5074505;28;20020;-71
2022/12/20 04:10:07;;;;;;;36.33;17.50;;;;;;;-0.64;83.27;101613.72;5071360;28;20032;-71
2022/12/20 04:12:32;;;;;;;41.92;18.52;;;;;;;-0.59;83.07;101613.97;5071197;28;20032;-71
2022/12/20 04:14:57;;;;;;;35.38;17.55;;;;;;;-0.85;83.58;101610.06;5072894;28;20025;-71
2022/12/20 04:17:23;;;;;;;35.10;17.35;;;;;;;-0.95;84.27;101607.72;5071809;28;20029;-71
2022/12/20 04:19:48;;;;;;;35.17;18.42;;;;;;;-0.77;84.42;101607.16;5071537;28;20036;-71
2022/12/20 04:22:14;;;;;;;32.15;17.70;;;;;;;-0.68;82.67;101612.47;5071411;28;20036;-72
2022/12/20 04:24:39;;;;;;;34.25;17.25;;;;;;;-0.81;83.61;101603.13;5073018;28;20027;-72
2022/12/20 04:27:05;;;;;;;44.25;21.23;;;;;;;-0.97;81.05;101600.72;5072645;28;20056;-72
2022/12/20 04:29:30;;;;;;;34.97;19.58;;;;;;;-0.94;80.61;101600.34;5071517;28;20453;-72
2022/12/20 04:31:56;;;;;;;36.28;17.67;;;;;;;-0.76;82.20;101616.25;5087615;28;20028;-72
2022/12/20 04:34:21;;;;;;;44.40;18.85;;;;;;;-0.80;83.27;101610.31;5092868;28;20022;-72
2022/12/20 04:36:47;;;;;;;44.70;22.58;;;;;;;-0.72;82.06;101621.13;5083249;28;20024;-71
2022/12/20 04:39:12;;;;;;;63.30;30.27;;;;;;;-0.65;81.11;101615.66;5071575;28;20025;-72
2022/12/20 04:41:38;;;;;;;70.30;36.53;;;;;;;-0.58;81.32;101618.41;5083853;28;20223;-71
2022/12/20 04:44:03;;;;;;;57.40;31.45;;;;;;;-0.53;81.55;101615.06;5091516;28;20114;-71
2022/12/20 04:46:29;;;;;;;54.22;28.17;;;;;;;-0.68;81.99;101599.56;5090967;28;20551;-71
2022/12/20 04:48:54;;;;;;;38.83;21.42;;;;;;;-0.61;80.56;101605.94;5083139;28;20025;-71
2022/12/20 04:51:20;;;;;;;44.55;23.00;;;;;;;-0.51;80.15;101619.25;5072168;28;20085;-71
2022/12/20 04:53:46;;;;;;;41.42;20.15;;;;;;;-0.54;80.03;101616.06;5072291;28;20031;-71
2022/12/20 04:56:22;;;;;;;37.13;20.17;;;;;;;-0.49;80.25;101614.41;5073819;28;20016;-71
2022/12/20 04:58:50;;;;;;;46.67;20.58;;;;;;;-0.52;80.44;101611.25;5076371;28;20033;-71
2022/12/20 05:01:16;;;;;;;42.60;19.80;;;;;;;-0.58;82.02;101615.66;5072285;28;20554;-71
2022/12/20 05:03:43;;;;;;;35.50;19.85;;;;;;;-0.58;82.35;101611.00;5072378;28;20029;-71
2022/12/20 05:06:09;;;;;;;44.40;20.90;;;;;;;-0.65;82.15;101612.91;5070949;28;20470;-71
2022/12/20 05:08:35;;;;;;;40.38;22.35;;;;;;;-0.61;81.12;101614.16;5072085;28;20024;-71
2022/12/20 05:11:01;;;;;;;50.22;22.60;;;;;;;-0.62;80.85;101617.13;5071062;28;20025;-71
2022/12/20 05:13:26;;;;;;;62.22;27.95;;;;;;;-0.65;80.80;101603.78;5071910;28;20078;-71
2022/12/20 05:15:53;;;;;;;54.50;25.50;;;;;;;-0.59;81.38;101602.97;5071482;28;20043;-71
2022/12/20 05:18:19;;;;;;;52.70;27.05;;;;;;;-0.79;83.14;101601.00;5090589;28;20087;-71
2022/12/20 05:20:46;;;;;;;62.72;32.55;;;;;;;-0.85;83.74;101588.09;5075800;28;20025;-71
2022/12/20 05:28:39;;;;;;;51.17;25.77;;;;;;;-0.72;81.64;101599.16;5071491;28;20034;-72
2022/12/20 05:31:05;;;;;;;53.03;25.33;;;;;;;-0.78;82.92;101594.47;5068863;28;20419;-71
2022/12/20 05:33:31;;;;;;;49.60;26.80;;;;;;;-0.70;82.63;101593.41;5079504;28;20158;-72
2022/12/20 05:35:56;;;;;;;76.10;35.67;;;;;;;-0.79;80.48;101597.41;5090131;28;20060;-72
2022/12/20 05:38:23;;;;;;;205.85;76.57;;;;;;;-0.88;80.00;101599.50;5072641;28;20427;-72
2022/12/20 05:40:50;;;;;;;209.48;74.03;;;;;;;-0.87;79.96;101595.69;5069738;28;20029;-72
2022/12/20 05:43:19;;;;;;;94.25;44.05;;;;;;;-0.90;79.79;101599.72;5069718;28;20021;-72
2022/12/20 05:45:50;;;;;;;97.57;50.72;;;;;;;-0.76;80.33;101603.34;5069105;28;20017;-71
2022/12/20 05:48:16;;;;;;;71.47;34.55;;;;;;;-0.77;80.26;101598.06;5087021;28;20399;-71
2022/12/20 05:50:45;;;;;;;88.47;48.30;;;;;;;-0.79;80.93;101592.75;5089421;28;20024;-72
2022/12/20 05:53:12;;;;;;;94.50;48.63;;;;;;;-0.76;81.49;101608.00;5090159;28;20026;-72
2022/12/20 05:55:42;;;;;;;77.53;39.80;;;;;;;-0.84;81.30;101595.31;5090096;28;20020;-71
2022/12/20 05:58:12;;;;;;;91.70;42.55;;;;;;;-0.77;82.27;101600.81;5079081;28;20047;-72
2022/12/20 06:00:37;;;;;;;91.65;45.58;;;;;;;-0.73;83.19;101597.41;5088443;28;20093;-72
2022/12/20 06:03:03;;;;;;;98.72;51.28;;;;;;;-0.74;82.21;101594.91;5082464;28;20031;-72
2022/12/20 06:05:28;;;;;;;87.80;50.55;;;;;;;-0.77;82.73;101607.16;5083872;28;20036;-72
2022/12/20 06:07:54;;;;;;;83.07;39.50;;;;;;;-0.82;82.37;101601.44;5082332;28;20028;-71
2022/12/20 06:10:19;;;;;;;62.13;34.83;;;;;;;-0.72;82.39;101609.28;5084088;28;20067;-71
2022/12/20 06:12:45;;;;;;;78.38;42.10;;;;;;;-0.71;81.66;101606.34;5075283;28;20024;-71
2022/12/20 06:15:12;;;;;;;75.55;39.95;;;;;;;-0.85;83.88;101601.81;5080903;28;20044;-71
2022/12/20 06:17:37;;;;;;;80.50;39.13;;;;;;;-0.76;82.93;101595.09;5088645;28;20502;-71
2022/12/20 06:20:03;;;;;;;78.90;41.10;;;;;;;-0.69;82.03;101597.03;5083221;28;20028;-71
2022/12/20 06:22:29;;;;;;;81.20;37.70;;;;;;;-0.79;83.21;101602.91;5081646;28;20032;-70
2022/12/20 06:24:54;;;;;;;81.32;38.67;;;;;;;-0.94;84.84;101606.66;5089602;28;20524;-71
2022/12/20 06:27:21;;;;;;;75.70;38.00;;;;;;;-0.85;84.92;101612.81;5086721;28;20023;-72
2022/12/20 06:29:50;;;;;;;84.50;40.90;;;;;;;-0.59;83.74;101608.47;5084688;28;20028;-70
2022/12/20 06:32:16;;;;;;;72.57;38.58;;;;;;;-0.48;82.10;101613.38;5087462;28;20475;-70
2022/12/20 06:34:46;;;;;;;97.40;45.03;;;;;;;-0.37;81.78;101609.16;5087464;28;20391;-70
2022/12/20 06:37:11;;;;;;;124.53;54.27;;;;;;;-0.28;80.26;101615.28;5087929;28;20409;-70
2022/12/20 06:39:37;;;;;;;159.32;67.35;;;;;;;-0.39;78.98;101614.00;5088260;28;20110;-72
2022/12/20 06:42:03;;;;;;;151.95;70.07;;;;;;;-0.47;79.28;101615.06;5086476;28;20042;-71
2022/12/20 06:44:28;;;;;;;105.30;50.20;;;;;;;-0.37;79.74;101605.53;5089978;28;20036;-71
2022/12/20 06:46:54;;;;;;;76.55;38.55;;;;;;;-0.54;79.65;101599.56;5086106;28;20114;-72
2022/12/20 06:49:21;;;;;;;58.13;29.90;;;;;;;-0.69;80.41;101611.59;5088511;28;20028;-72
2022/12/20 06:51:47;;;;;;;52.17;26.17;;;;;;;-0.82;80.70;101614.31;5090176;28;20044;-71
2022/12/20 06:54:12;;;;;;;80.30;45.47;;;;;;;-0.63;81.16;101612.69;5090151;28;20593;-71
2022/12/20 06:56:38;;;;;;;67.32;37.72;;;;;;;-0.32;80.78;101600.25;5093017;28;20016;-71
2022/12/20 06:59:04;;;;;;;69.18;32.78;;;;;;;-0.30;78.97;101610.00;5091168;28;20075;-71
2022/12/20 07:01:30;;;;;;;75.43;33.95;;;;;;;-0.32;78.58;101595.59;5091033;28;20055;-70
2022/12/20 07:03:56;;;;;;;103.63;45.22;;;;;;;-0.39;79.26;101599.41;5077813;28;20453;-71
2022/12/20 07:06:21;;;;;;;65.30;32.67;;;;;;;-0.51;79.09;101600.00;5084236;28;20468;-69
2022/12/20 07:08:47;;;;;;;65.78;35.28;;;;;;;-0.49;79.95;101603.41;5092424;28;20096;-70
2022/12/20 07:11:12;;;;;;;63.42;33.60;;;;;;;-0.28;79.94;101598.78;5093308;28;20092;-69
2022/12/20 07:13:38;;;;;;;62.63;33.55;;;;;;;0.12;77.78;101614.47;5079587;28;20036;-71
2022/12/20 07:16:04;;;;;;;115.20;63.20;;;;;;;0.00;78.97;101597.75;5087229;28;20040;-71
2022/12/20 07:18:30;;;;;;;82.72;45.80;;;;;;;0.35;78.67;101589.22;5089470;28;20032;-70
2022/12/20 07:21:03;;;;;;;90.32;50.75;;;;;;;0.10;78.35;101605.56;5085700;28;20097;-68
2022/12/20 07:23:29;;;;;;;136.73;80.90;;;;;;;0.34;78.07;101592.22;5077221;28;20043;-72
2022/12/20 07:25:56;;;;;;;400.27;262.63;;;;;;;0.38;77.78;101590.72;5085629;28;20024;-69
2022/12/20 07:28:22;;;;;;;148.27;95.20;;;;;;;0.38;77.89;101591.56;5073902;28;20061;-69
2022/12/20 07:30:48;;;;;;;66.03;39.08;;;;;;;0.45;78.06;101577.78;5072575;28;20429;-69
2022/12/20 07:33:14;;;;;;;74.05;42.42;;;;;;;0.28;78.79;101574.63;5073957;28;20024;-69
2022/12/20 07:35:39;;;;;;;115.82;74.25;;;;;;;0.29;79.23;101568.06;5078338;28;20042;-69
2022/12/20 07:38:05;;;;;;;114.68;73.78;;;;;;;0.49;78.52;101572.69;5092153;28;20038;-69
2022/12/20 07:40:31;;;;;;;105.63;68.00;;;;;;;0.81;77.37;101572.78;5092753;28;20035;-69
2022/12/20 07:42:56;;;;;;;72.07;36.40;;;;;;;0.60;76.96;101560.16;5093913;28;20036;-69
2022/12/20 07:45:22;;;;;;;77.75;40.40;;;;;;;0.91;76.73;101564.91;5094058;28;20108;-69
2022/12/20 07:47:47;;;;;;;72.78;37.75;;;;;;;1.00;74.57;101559.16;5092996;28;20422;-69
2022/12/20 07:50:13;;;;;;;66.03;36.40;;;;;;;1.10;74.10;101565.03;5092399;28;20517;-69
2022/12/20 07:52:42;;;;;;;59.80;34.42;;;;;;;1.01;74.12;101556.16;5092325;28;20490;-69
2022/12/20 07:55:09;;;;;;;61.50;35.47;;;;;;;1.29;73.59;101554.09;5080781;28;20384;-70
2022/12/20 07:57:50;;;;;;;63.28;33.38;;;;;;;1.71;72.69;101565.50;5072042;28;20549;-69
2022/12/20 08:00:17;;;;;;;67.43;33.60;;;;;;;1.85;71.58;101566.22;5073365;28;20060;-69
2022/12/20 08:02:56;;;;;;;64.95;35.92;;;;;;;1.82;70.17;101555.63;5072141;28;20093;-70
2022/12/20 08:05:23;;;;;;;60.38;31.38;;;;;;;1.89;69.63;101544.53;5073157;28;20032;-70
2022/12/20 08:07:49;;;;;;;52.53;23.42;;;;;;;2.05;65.90;101562.44;5071752;28;20120;-70
2022/12/20 08:10:18;;;;;;;48.95;25.75;;;;;;;2.17;65.15;101554.25;5071535;28;20197;-69
2022/12/20 08:12:46;;;;;;;53.88;31.95;;;;;;;2.24;65.09;101541.22;5083762;28;20115;-69
2022/12/20 08:15:12;;;;;;;60.13;29.83;;;;;;;2.08;65.49;101550.94;5093360;28;20059;-69
2022/12/20 08:17:38;;;;;;;54.47;31.00;;;;;;;2.19;66.66;101543.84;5093106;28;20028;-70
2022/12/20 08:20:05;;;;;;;59.25;32.17;;;;;;;2.04;66.49;101542.25;5091813;28;20024;-69
2022/12/20 08:22:31;;;;;;;66.20;33.63;;;;;;;1.64;67.87;101546.22;5093165;28;20458;-69
2022/12/20 08:24:57;;;;;;;61.15;30.17;;;;;;;1.87;67.47;101536.50;5091119;28;20063;-70
2022/12/20 08:27:22;;;;;;;52.58;29.48;;;;;;;1.89;66.16;101536.25;5090971;28;20131;-69
2022/12/20 08:29:48;;;;;;;50.83;27.48;;;;;;;2.02;65.91;101519.56;5093277;28;20032;-72
2022/12/20 08:32:14;;;;;;;49.38;28.58;;;;;;;2.19;65.03;101519.00;5091863;28;20454;-69
2022/12/20 08:34:40;;;;;;;50.88;29.02;;;;;;;2.08;64.32;101535.22;5092899;28;20027;-70
2022/12/20 08:37:06;;;;;;;49.35;25.58;;;;;;;1.49;64.65;101535.50;5091476;28;20020;-70
2022/12/20 08:39:31;;;;;;;50.22;26.00;;;;;;;1.47;66.12;101525.75;5091374;28;20413;-69
2022/12/20 08:41:57;;;;;;;42.95;24.67;;;;;;;2.03;64.96;101528.69;5090482;28;20024;-70
2022/12/20 08:44:22;;;;;;;41.58;23.73;;;;;;;2.05;64.54;101532.94;5078778;28;20067;-69
2022/12/20 08:46:48;;;;;;;40.63;23.73;;;;;;;1.33;65.79;101525.03;5072497;28;20031;-69
2022/12/20 08:49:14;;;;;;;40.78;23.83;;;;;;;1.26;66.19;101514.03;5071137;28;20092;-69
2022/12/20 08:51:39;;;;;;;49.92;23.40;;;;;;;1.56;67.77;101526.31;5073312;28;20524;-69
2022/12/20 08:54:05;;;;;;;41.72;22.88;;;;;;;2.00;66.93;101512.59;5072330;28;20021;-69
2022/12/20 08:56:30;;;;;;;48.65;25.00;;;;;;;2.37;64.90;101515.41;5072236;28;20017;-69
2022/12/20 08:58:56;;;;;;;70.35;34.10;;;;;;;2.15;65.29;101521.34;5071174;28;20038;-68
2022/12/20 09:01:22;;;;;;;46.58;24.27;;;;;;;2.14;66.03;101508.63;5070841;28;20036;-69
2022/12/20 09:03:48;;;;;;;46.30;21.92;;;;;;;2.03;65.29;101509.38;5070682;28;20560;-69
2022/12/20 09:06:19;;;;;;;39.13;22.25;;;;;;;1.71;65.42;101513.06;5079471;28;20116;-69
2022/12/20 09:08:45;;;;;;;40.00;21.08;;;;;;;1.79;66.67;101501.72;5090998;28;20057;-69
2022/12/20 09:11:19;;;;;;;36.72;20.30;;;;;;;1.43;65.65;101508.81;5091033;28;20028;-69
2022/12/20 09:13:47;;;;;;;29.83;16.63;;;;;;;1.41;65.19;101505.44;5090861;28;20051;-69
2022/12/20 09:16:14;;;;;;;33.50;17.00;;;;;;;1.85;63.76;101490.88;5090997;28;20100;-69
2022/12/20 09:18:40;;;;;;;36.15;19.80;;;;;;;1.96;63.55;101476.31;5092460;28;20561;-69
2022/12/20 09:21:07;;;;;;;30.65;16.73;;;;;;;1.57;64.75;101489.41;5083008;28;20115;-69
2022/12/20 09:23:34;;;;;;;37.10;18.55;;;;;;;1.34;66.37;101471.56;5085772;28;20036;-69
2022/12/20 09:26:05;;;;;;;28.73;16.15;;;;;;;1.28;66.87;101467.78;5090620;28;20032;-69
2022/12/20 09:28:32;;;;;;;37.00;17.23;;;;;;;1.37;67.45;101460.91;5091921;28;20114;-69
2022/12/20 09:31:02;;;;;;;34.88;17.92;;;;;;;0.96;67.51;101443.81;5091838;28;20028;-68
2022/12/20 09:33:29;;;;;;;33.80;16.13;;;;;;;1.44;67.74;101454.50;5090879;28;20087;-69
2022/12/20 09:35:56;;;;;;;36.38;16.13;;;;;;;1.52;65.55;101457.81;5090912;28;20016;-69
2022/12/20 09:38:21;;;;;;;41.97;19.13;;;;;;;2.07;66.12;101438.81;5071792;28;20040;-69
2022/12/20 09:40:50;;;;;;;36.88;18.30;;;;;;;2.09;65.50;101429.25;5071379;28;20033;-69
2022/12/20 09:43:16;;;;;;;37.92;18.63;;;;;;;1.92;66.93;101429.00;5071385;28;20102;-69
2022/12/20 09:45:46;;;;;;;29.25;15.85;;;;;;;1.86;65.75;101426.31;5069951;28;20123;-69
2022/12/20 09:48:34;;;;;;;32.30;16.10;;;;;;;1.90;64.60;101425.63;5071407;28;20033;-68
2022/12/20 09:51:08;;;;;;;29.40;16.08;;;;;;;1.72;65.70;101426.47;5071151;28;20040;-68
2022/12/20 09:53:55;;;;;;;26.02;15.07;;;;;;;1.60;64.97;101423.59;5071366;28;20533;-68
2022/12/20 09:56:27;;;;;;;26.80;14.75;;;;;;;2.17;64.00;101411.53;5071216;28;20020;-68
2022/12/20 09:59:01;;;;;;;26.38;15.82;;;;;;;2.17;62.69;101403.22;5081753;28;20111;-69
2022/12/20 10:01:29;;;;;;;26.08;14.70;;;;;;;2.62;61.90;101409.47;5090130;28;20028;-68
2022/12/20 10:03:57;;;;;;;31.70;15.32;;;;;;;2.49;61.58;101411.34;5088563;28;20063;-68
2022/12/20 10:06:31;;;;;;;27.27;14.32;;;;;;;2.34;62.54;101397.94;5079580;28;20165;-68
2022/12/20 10:09:25;;;;;;;27.13;13.23;;;;;;;2.98;61.66;101399.38;5071061;28;20039;-68
2022/12/20 10:12:13;;;;;;;28.55;14.85;;;;;;;2.95;61.78;101391.53;5050966;28;20502;-68
2022/12/20 10:14:41;;;;;;;38.92;21.08;;;;;;;3.58;61.27;101380.06;5071094;28;20028;-69
2022/12/20 10:17:14;;;;;;;32.03;18.55;;;;;;;3.92;60.66;101378.34;5070460;28;20140;-69
2022/12/20 10:20:13;;;;;;;37.78;24.00;;;;;;;3.95;57.86;101377.00;5068875;28;20020;-69
2022/12/20 10:22:49;;;;;;;28.80;15.32;;;;;;;3.74;59.14;101367.41;5070939;28;20035;-69
2022/12/20 10:25:19;;;;;;;25.90;16.30;;;;;;;3.91;56.94;101361.97;5070267;28;20083;-69
2022/12/20 10:27:47;;;;;;;26.30;16.13;;;;;;;4.07;56.27;101358.44;5070958;28;20028;-70
2022/12/20 10:30:15;;;;;;;24.55;12.90;;;;;;;3.63;57.37;101344.22;5071066;28;20025;-69
2022/12/20 10:32:48;;;;;;;24.30;14.43;;;;;;;3.23;56.83;101343.00;5069540;28;20474;-69
2022/12/20 10:35:13;;;;;;;26.27;14.52;;;;;;;3.62;58.46;101336.97;5077801;28;20016;-69
2022/12/20 10:37:56;;;;;;;26.58;14.30;;;;;;;2.92;59.19;101332.03;5091038;28;20111;-69
2022/12/20 10:40:30;;;;;;;24.73;13.65;;;;;;;3.18;58.07;101327.13;5090994;28;20114;-68
2022/12/20 10:42:57;;;;;;;29.58;15.38;;;;;;;3.25;59.26;101320.63;5089973;28;20016;-68
2022/12/20 10:45:22;;;;;;;30.75;15.93;;;;;;;3.53;59.48;101319.06;5089547;28;20490;-69
2022/12/20 10:47:50;;;;;;;32.92;16.08;;;;;;;3.98;57.52;101312.84;5089963;28;20192;-69
2022/12/20 10:50:22;;;;;;;29.63;16.20;;;;;;;3.44;56.12;101313.91;5089936;28;20451;-68
2022/12/20 10:53:20;;;;;;;23.40;12.63;;;;;;;2.64;59.30;101302.31;5089510;28;20092;-69
2022/12/20 10:55:46;;;;;;;25.05;12.68;;;;;;;3.05;58.42;101302.50;5067963;28;20093;-68
2022/12/20 10:58:36;;;;;;;26.73;12.40;;;;;;;3.39;57.86;101299.97;5090856;28;20020;-69
2022/12/20 11:01:25;;;;;;;20.13;12.40;;;;;;;3.23;57.19;101290.47;5089483;28;20031;-69
2022/12/20 11:04:02;;;;;;;26.55;14.02;;;;;;;3.43;56.95;101279.00;5086709;28;20055;-69
2022/12/20 11:06:37;;;;;;;23.08;13.60;;;;;;;3.96;55.90;101281.75;5070408;28;20025;-69
2022/12/20 11:09:17;;;;;;;26.05;14.23;;;;;;;4.18;55.47;101275.53;5070430;28;20078;-70
2022/12/20 11:11:56;;;;;;;;;;;;;;;3.91;54.50;101271.44;5071002;28;20028;-69
2022/12/20 11:14:25;;;;;;;24.83;12.55;;;;;;;3.83;55.14;101259.91;5070465;28;20379;-69
2022/12/20 11:16:53;;;;;;;25.93;12.70;;;;;;;4.26;54.47;101255.75;5068959;28;20127;-68
2022/12/20 11:19:37;;;;;;;25.60;14.20;;;;;;;4.20;52.37;101249.28;5068703;28;20029;-69
2022/12/20 11:22:24;;;;;;;22.17;11.07;;;;;;;3.71;54.74;101244.19;5069077;28;20075;-69
2022/12/20 11:24:55;;;;;;;26.90;11.95;;;;;;;3.16;55.29;101235.28;5070738;28;20021;-68
2022/12/20 11:27:34;;;;;;;20.00;12.20;;;;;;;3.55;55.76;101240.25;5070353;28;20063;-69
2022/12/20 11:30:19;;;;;;;24.17;12.60;;;;;;;3.74;53.31;101226.25;5070932;28;20036;-69